createdAt,value
2022-08-12T00:00:09.919Z,98795.31
2022-08-12T00:02:55.156Z,98801.19
2022-08-12T00:06:00.347Z,98801.19
2022-08-12T00:08:47.626Z,98807.38
2022-08-12T00:11:33.342Z,98809.91
2022-08-12T00:14:18.620Z,98805.56
2022-08-12T00:17:06.740Z,98808.91
2022-08-12T00:19:52.685Z,98814.44
2022-08-12T00:22:39.284Z,98819.94
2022-08-12T00:26:06.634Z,98805.38
2022-08-12T00:28:31.651Z,98802.84
2022-08-12T00:31:17.104Z,98802.41
2022-08-12T00:34:03.703Z,98797.91
2022-08-12T00:36:51.214Z,98805.09
2022-08-12T00:39:37.259Z,98805.75
2022-08-12T00:42:10.958Z,98799.44
2022-08-12T00:44:42.638Z,98799.72
2022-08-12T00:47:24.724Z,98797.91
2022-08-12T00:49:56.430Z,98790.59
2022-08-12T00:52:25.052Z,98791.56
2022-08-12T00:54:57.292Z,98795.50
2022-08-12T00:57:28.891Z,98787.69
2022-08-12T00:59:58.780Z,98790.41
2022-08-12T01:02:29.479Z,98791.00
2022-08-12T01:05:18.941Z,98788.06
2022-08-12T01:08:06.627Z,98798.00
2022-08-12T01:10:57.036Z,98790.09
2022-08-12T01:13:26.105Z,98790.78
2022-08-12T01:15:55.319Z,98792.63
2022-08-12T01:18:26.453Z,98796.19
2022-08-12T01:21:11.767Z,98794.50
2022-08-12T01:24:30.346Z,98786.94
2022-08-12T01:27:03.293Z,98787.94
2022-08-12T01:29:42.638Z,98790.13
2022-08-12T01:32:14.259Z,98792.50
2022-08-12T01:34:47.748Z,98792.09
2022-08-12T01:37:20.262Z,98785.13
2022-08-12T01:40:33.932Z,98790.81
2022-08-12T01:42:47.450Z,98777.69
2022-08-12T01:45:17.537Z,98785.09
2022-08-12T01:48:06.225Z,98787.13
2022-08-12T01:50:48.172Z,98775.66
2022-08-12T01:53:20.650Z,98780.75
2022-08-12T01:55:50.451Z,98774.91
2022-08-12T01:58:29.957Z,98769.69
2022-08-12T02:01:03.748Z,98768.00
2022-08-12T02:04:04.929Z,98765.66
2022-08-12T02:06:58.810Z,98770.13
2022-08-12T02:10:00.222Z,98775.72
2022-08-12T02:12:43.551Z,98775.03
2022-08-12T02:15:28.260Z,98783.09
2022-08-12T02:18:05.775Z,98779.09
2022-08-12T02:20:51.596Z,98778.75
2022-08-12T02:23:27.944Z,98785.44
2022-08-12T02:25:59.366Z,98771.03
2022-08-12T02:28:30.560Z,98772.25
2022-08-12T02:31:04.757Z,98770.53
2022-08-12T02:33:33.610Z,98773.22
2022-08-12T02:36:02.648Z,98773.88
2022-08-12T02:38:31.362Z,98777.94
2022-08-12T02:41:02.409Z,98779.25
2022-08-12T02:43:37.836Z,98771.19
2022-08-12T02:46:14.140Z,98766.91
2022-08-12T02:48:48.187Z,98766.19
2022-08-12T02:51:24.720Z,98764.41
2022-08-12T02:54:04.681Z,98769.34
2022-08-12T02:56:33.944Z,98765.59
2022-08-12T02:59:02.886Z,98764.66
2022-08-12T03:01:35.274Z,98768.75
2022-08-12T03:04:07.146Z,98769.69
2022-08-12T03:06:49.392Z,98769.69
2022-08-12T03:09:18.465Z,98770.44
2022-08-12T03:11:53.376Z,98770.19
2022-08-12T03:14:26.663Z,98758.38
2022-08-12T03:17:09.527Z,98762.25
2022-08-12T03:20:09.718Z,98766.78
2022-08-12T03:22:27.993Z,98766.31
2022-08-12T03:25:01.906Z,98768.97
2022-08-12T03:27:31.826Z,98774.09
2022-08-12T03:30:01.923Z,98773.16
2022-08-12T03:32:38.166Z,98769.75
2022-08-12T03:35:07.881Z,98764.44
2022-08-12T03:37:38.419Z,98775.69
2022-08-12T03:40:08.865Z,98763.19
2022-08-12T03:42:42.186Z,98764.53
2022-08-12T03:45:50.044Z,98768.16
2022-08-12T03:48:39.308Z,98763.38
2022-08-12T03:51:26.107Z,98767.13
2022-08-12T03:54:12.086Z,98764.47
2022-08-12T03:56:58.286Z,98765.47
2022-08-12T03:59:44.051Z,98773.13
2022-08-12T04:02:15.214Z,98775.25
2022-08-12T04:04:46.648Z,98774.09
2022-08-12T04:07:17.195Z,98779.44
2022-08-12T04:09:48.093Z,98775.56
2022-08-12T04:12:35.503Z,98776.34
2022-08-12T04:15:04.746Z,98788.94
2022-08-12T04:17:33.426Z,98784.25
2022-08-12T04:20:02.768Z,98777.00
2022-08-12T04:22:33.591Z,98777.66
2022-08-12T04:25:04.067Z,98774.00
2022-08-12T04:27:33.385Z,98778.13
2022-08-12T04:30:29.000Z,98775.91
2022-08-12T04:32:52.212Z,98769.19
2022-08-12T04:35:23.216Z,98779.06
2022-08-12T04:37:58.627Z,98781.25
2022-08-12T04:40:32.538Z,98790.13
2022-08-12T04:43:02.174Z,98785.81
2022-08-12T04:45:30.946Z,98784.72
2022-08-12T04:47:59.113Z,98787.91
2022-08-12T04:50:35.990Z,98784.38
2022-08-12T04:53:06.452Z,98778.72
2022-08-12T04:55:35.424Z,98793.91
2022-08-12T04:58:03.324Z,98786.34
2022-08-12T05:00:31.293Z,98787.88
2022-08-12T05:02:59.383Z,98783.22
2022-08-12T05:05:35.265Z,98786.84
2022-08-12T05:08:06.853Z,98794.13
2022-08-12T05:10:35.889Z,98788.56
2022-08-12T05:13:07.112Z,98785.84
2022-08-12T05:15:36.085Z,98797.94
2022-08-12T05:18:19.640Z,98796.28
2022-08-12T05:20:52.271Z,98798.47
2022-08-12T05:23:22.215Z,98793.19
2022-08-12T05:25:51.782Z,98791.16
2022-08-12T05:28:20.094Z,98794.75
2022-08-12T05:30:48.778Z,98800.19
2022-08-12T05:33:16.781Z,98803.47
2022-08-12T05:35:47.675Z,98796.53
2022-08-12T05:38:36.849Z,98806.56
2022-08-12T05:41:18.936Z,98806.59
2022-08-12T05:43:48.432Z,98807.41
2022-08-12T05:46:19.556Z,98810.78
2022-08-12T05:48:47.955Z,98818.91
2022-08-12T05:51:16.007Z,98818.28
2022-08-12T05:53:45.321Z,98825.66
2022-08-12T05:56:20.897Z,98824.66
2022-08-12T05:58:51.184Z,98831.00
2022-08-12T06:02:10.726Z,98828.84
2022-08-12T06:04:08.713Z,98836.72
2022-08-12T06:06:39.889Z,98825.03
2022-08-12T06:09:12.209Z,98821.63
2022-08-12T06:12:04.430Z,98823.81
2022-08-12T06:14:32.349Z,98829.91
2022-08-12T06:17:01.009Z,98831.03
2022-08-12T06:20:26.972Z,98823.63
2022-08-12T06:22:19.415Z,98834.22
2022-08-12T06:24:49.756Z,98834.91
2022-08-12T06:27:19.013Z,98832.88
2022-08-12T06:30:07.999Z,98834.03
2022-08-12T06:32:35.347Z,98836.59
2022-08-12T06:35:25.739Z,98825.56
2022-08-12T06:37:56.575Z,98835.56
2022-08-12T06:40:44.402Z,98829.09
2022-08-12T06:43:14.740Z,98826.47
2022-08-12T06:45:49.186Z,98826.16
2022-08-12T06:48:17.491Z,98825.25
2022-08-12T06:50:46.088Z,98821.28
2022-08-12T06:53:14.051Z,98825.31
2022-08-12T06:55:57.670Z,98818.47
2022-08-12T06:58:26.905Z,98824.25
2022-08-12T07:00:55.894Z,98831.41
2022-08-12T07:03:27.820Z,98820.69
2022-08-12T07:05:57.630Z,98825.63
2022-08-12T07:08:29.048Z,98827.75
2022-08-12T07:11:00.023Z,98831.69
2022-08-12T07:13:30.887Z,98835.09
2022-08-12T07:15:59.536Z,98822.00
2022-08-12T07:18:32.786Z,98822.78
2022-08-12T07:21:03.884Z,98819.88
2022-08-12T07:23:33.441Z,98832.25
2022-08-12T07:26:03.694Z,98819.38
2022-08-12T07:28:34.871Z,98819.50
2022-08-12T07:31:07.855Z,98824.25
2022-08-12T07:33:38.475Z,98826.03
2022-08-12T07:36:11.833Z,98817.53
2022-08-12T07:38:43.751Z,98818.22
2022-08-12T07:41:16.983Z,98811.25
2022-08-12T07:43:46.457Z,98818.66
2022-08-12T07:46:16.651Z,98817.56
2022-08-12T07:48:46.440Z,98814.88
2022-08-12T07:51:25.301Z,98812.84
2022-08-12T07:54:01.191Z,98812.28
2022-08-12T07:56:32.871Z,98809.06
2022-08-12T07:59:02.970Z,98806.16
2022-08-12T08:01:32.797Z,98811.63
2022-08-12T08:04:19.475Z,98800.56
2022-08-12T08:06:48.452Z,98795.75
2022-08-12T08:09:21.165Z,98796.97
2022-08-12T08:12:19.118Z,98786.53
2022-08-12T08:14:49.854Z,98789.00
2022-08-12T08:17:18.648Z,98787.47
2022-08-12T08:20:02.653Z,98789.50
2022-08-12T08:22:50.284Z,98780.31
2022-08-12T08:25:34.663Z,98780.44
2022-08-12T08:28:08.774Z,98782.41
2022-08-12T08:30:39.368Z,98785.13
2022-08-12T08:33:22.664Z,98789.19
2022-08-12T08:35:54.289Z,98793.00
2022-08-12T08:38:32.354Z,98790.38
2022-08-12T08:42:19.027Z,98787.88
2022-08-12T08:44:11.977Z,98786.81
2022-08-12T08:46:44.502Z,98781.72
2022-08-12T08:49:14.493Z,98778.00
2022-08-12T08:51:43.262Z,98772.69
2022-08-12T08:54:12.159Z,98776.38
2022-08-12T08:56:44.075Z,98782.06
2022-08-12T08:59:14.322Z,98775.91
2022-08-12T09:01:44.364Z,98773.34
2022-08-12T09:05:11.741Z,98769.88
2022-08-12T09:07:17.780Z,98772.59
2022-08-12T09:12:57.716Z,98765.72
2022-08-12T09:15:55.755Z,98768.78
2022-08-12T09:18:33.437Z,98758.16
2022-08-12T09:21:03.870Z,98760.00
2022-08-12T09:23:59.655Z,98750.09
2022-08-12T09:26:28.742Z,98758.19
2022-08-12T09:28:57.959Z,98748.13
2022-08-12T09:32:06.409Z,98750.53
2022-08-12T09:34:28.388Z,98748.75
2022-08-12T09:37:20.457Z,98743.97
2022-08-12T09:40:05.162Z,98746.56
2022-08-12T09:43:16.873Z,98743.34
2022-08-12T09:46:11.177Z,98737.69
2022-08-12T09:48:39.313Z,98735.97
2022-08-12T09:51:17.004Z,98723.47
2022-08-12T09:54:08.295Z,98724.88
2022-08-12T09:57:02.843Z,98711.22
2022-08-12T10:00:17.601Z,98729.88
2022-08-12T10:02:48.790Z,98724.41
2022-08-12T10:05:09.248Z,98720.91
2022-08-12T10:07:41.727Z,98717.75
2022-08-12T10:10:24.579Z,98716.22
2022-08-12T10:13:36.013Z,98697.44
2022-08-12T10:16:05.174Z,98691.09
2022-08-12T10:18:35.433Z,98695.63
2022-08-12T10:21:08.479Z,98698.06
2022-08-12T10:23:40.698Z,98695.78
2022-08-12T10:26:37.469Z,98687.06
2022-08-12T10:30:01.453Z,98686.00
2022-08-12T10:32:44.284Z,98687.03
2022-08-12T10:35:09.232Z,98682.09
2022-08-12T10:38:35.029Z,98685.75
2022-08-12T10:40:32.066Z,98678.41
2022-08-12T10:43:18.853Z,98670.19
2022-08-12T10:45:49.904Z,98672.16
2022-08-12T10:48:33.421Z,98669.53
2022-08-12T10:52:03.592Z,98673.63
2022-08-12T10:54:00.842Z,98667.53
2022-08-12T10:56:34.543Z,98672.50
2022-08-12T10:59:05.133Z,98682.00
2022-08-12T11:04:20.471Z,98673.47
2022-08-12T11:04:39.369Z,98668.94
2022-08-12T11:08:38.249Z,98660.47
2022-08-12T11:10:02.406Z,98650.28
2022-08-12T11:12:56.971Z,98650.19
2022-08-12T11:15:32.838Z,98662.59
2022-08-12T11:18:18.417Z,98644.56
2022-08-12T11:20:48.961Z,98650.91
2022-08-12T11:23:25.669Z,98641.78
2022-08-12T11:26:07.953Z,98646.22
2022-08-12T11:28:38.267Z,98646.75
2022-08-12T11:31:12.347Z,98633.81
2022-08-12T11:34:05.048Z,98633.28
2022-08-12T11:36:32.868Z,98640.97
2022-08-12T11:39:07.719Z,98643.22
2022-08-12T11:41:43.074Z,98636.34
2022-08-12T11:44:37.033Z,98635.34
2022-08-12T11:46:59.070Z,98627.03
2022-08-12T11:49:32.261Z,98617.28
2022-08-12T11:52:26.541Z,98621.72
2022-08-12T11:54:54.325Z,98617.41
2022-08-12T11:58:07.242Z,98625.16
2022-08-12T12:03:01.191Z,98610.72
2022-08-12T12:05:41.687Z,98596.94
2022-08-12T12:08:38.950Z,98602.88
2022-08-12T12:11:09.517Z,98606.69
2022-08-12T12:14:07.630Z,98613.53
2022-08-12T12:16:29.972Z,98597.31
2022-08-12T12:18:58.064Z,98601.66
2022-08-12T12:21:47.085Z,98601.66
2022-08-12T12:24:13.976Z,98600.34
2022-08-12T12:26:59.612Z,98600.84
2022-08-12T12:30:18.104Z,98596.88
2022-08-12T12:32:19.242Z,98600.22
2022-08-12T12:35:14.020Z,98602.69
2022-08-12T12:38:04.554Z,98608.63
2022-08-12T12:40:39.787Z,98605.16
2022-08-12T12:43:08.908Z,98586.59
2022-08-12T12:45:39.576Z,98593.59
2022-08-12T12:48:13.977Z,98596.44
2022-08-12T12:50:45.630Z,98597.44
2022-08-12T12:54:08.035Z,98590.75
2022-08-12T12:56:15.834Z,98587.19
2022-08-12T12:58:44.138Z,98580.03
2022-08-12T13:01:25.612Z,98583.34
2022-08-12T13:04:01.886Z,98572.00
2022-08-12T13:06:32.000Z,98572.47
2022-08-12T13:09:02.976Z,98568.38
2022-08-12T13:11:41.811Z,98566.78
2022-08-12T13:14:29.119Z,98572.47
2022-08-12T13:17:02.772Z,98584.88
2022-08-12T13:19:37.401Z,98566.44
2022-08-12T13:22:23.836Z,98568.25
2022-08-12T13:24:57.025Z,98566.69
2022-08-12T13:27:34.440Z,98563.72
2022-08-12T13:30:11.109Z,98567.03
2022-08-12T13:32:42.573Z,98566.06
2022-08-12T13:35:19.860Z,98561.94
2022-08-12T13:38:02.738Z,98560.13
2022-08-12T13:40:33.611Z,98554.44
2022-08-12T13:43:02.548Z,98549.97
2022-08-12T13:45:34.979Z,98544.88
2022-08-12T13:48:06.795Z,98550.75
2022-08-12T13:50:37.402Z,98542.59
2022-08-12T13:53:23.689Z,98547.72
2022-08-12T13:55:59.710Z,98556.00
2022-08-12T13:58:32.873Z,98556.97
2022-08-12T14:01:05.396Z,98563.06
2022-08-12T14:03:51.469Z,98557.69
2022-08-12T14:06:21.261Z,98555.88
2022-08-12T14:08:51.249Z,98552.50
2022-08-12T14:11:25.400Z,98546.38
2022-08-12T14:14:06.042Z,98540.38
2022-08-12T14:16:48.941Z,98537.19
2022-08-12T14:19:22.525Z,98543.69
2022-08-12T14:21:59.491Z,98539.44
2022-08-12T14:24:40.711Z,98538.56
2022-08-12T14:27:11.254Z,98534.47
2022-08-12T14:30:05.328Z,98538.03
2022-08-12T14:32:35.650Z,98545.75
2022-08-12T14:35:09.297Z,98537.88
2022-08-12T14:37:56.932Z,98533.03
2022-08-12T14:40:29.163Z,98516.63
2022-08-12T14:42:59.989Z,98516.00
2022-08-12T14:45:45.524Z,98518.75
2022-08-12T14:48:19.518Z,98520.06
2022-08-12T14:52:07.862Z,98516.25
2022-08-12T14:55:13.851Z,98530.66
2022-08-12T14:59:55.707Z,98528.00
2022-08-12T15:02:26.505Z,98522.38
2022-08-12T15:04:59.163Z,98518.66
2022-08-12T15:07:34.035Z,98521.31
2022-08-12T15:10:31.765Z,98522.88
2022-08-12T15:13:06.908Z,98523.34
2022-08-12T15:15:44.126Z,98518.06
2022-08-12T15:18:15.557Z,98527.19
2022-08-12T15:20:50.630Z,98519.91
2022-08-12T15:23:22.650Z,98524.13
2022-08-12T15:26:02.760Z,98528.78
2022-08-12T15:28:33.651Z,98526.88
2022-08-12T15:31:02.317Z,98530.66
2022-08-12T15:33:45.319Z,98515.28
2022-08-12T15:36:19.174Z,98517.69
2022-08-12T15:38:49.178Z,98518.53
2022-08-12T15:41:17.531Z,98520.22
2022-08-12T15:44:16.333Z,98509.34
2022-08-12T15:46:33.505Z,98507.94
2022-08-12T15:49:02.021Z,98511.50
2022-08-12T15:51:59.324Z,98510.34
2022-08-12T15:54:33.694Z,98508.63
2022-08-12T15:57:08.379Z,98510.63
2022-08-12T15:59:59.962Z,98509.19
2022-08-12T16:02:49.401Z,98507.66
2022-08-12T16:06:16.800Z,98514.84
2022-08-12T16:08:15.201Z,98511.31
2022-08-12T16:10:48.516Z,98513.06
2022-08-12T16:13:25.284Z,98515.41
2022-08-12T16:16:03.954Z,98510.34
2022-08-12T16:18:40.352Z,98514.34
2022-08-12T16:21:50.481Z,98501.69
2022-08-12T16:24:08.342Z,98506.88
2022-08-12T16:26:40.961Z,98505.97
2022-08-12T16:29:15.164Z,98507.50
2022-08-12T16:31:45.811Z,98513.16
2022-08-12T16:34:40.063Z,98508.31
2022-08-12T16:37:08.815Z,98502.41
2022-08-12T16:40:00.391Z,98510.78
2022-08-12T16:42:28.943Z,98502.16
2022-08-12T16:45:00.251Z,98499.44
2022-08-12T16:47:58.105Z,98504.53
2022-08-12T16:50:20.139Z,98500.06
2022-08-12T16:52:50.218Z,98507.13
2022-08-12T16:55:19.087Z,98507.69
2022-08-12T16:57:50.153Z,98507.00
2022-08-12T17:00:24.968Z,98516.53
2022-08-12T17:02:57.415Z,98503.53
2022-08-12T17:05:31.344Z,98507.19
2022-08-12T17:08:01.138Z,98506.97
2022-08-12T17:10:36.027Z,98509.31
2022-08-12T17:13:09.444Z,98508.25
2022-08-12T17:15:50.731Z,98507.28
2022-08-12T17:18:44.234Z,98510.63
2022-08-12T17:21:10.015Z,98505.41
2022-08-12T17:23:47.908Z,98498.63
2022-08-12T17:26:18.568Z,98501.88
2022-08-12T17:28:53.408Z,98498.25
2022-08-12T17:31:59.682Z,98486.63
2022-08-12T17:34:30.526Z,98494.06
2022-08-12T17:37:05.035Z,98485.84
2022-08-12T17:40:06.668Z,98492.97
2022-08-12T17:42:32.475Z,98499.97
2022-08-12T17:45:17.834Z,98502.00
2022-08-12T17:48:01.410Z,98506.09
2022-08-12T17:50:35.917Z,98507.28
2022-08-12T17:53:05.432Z,98506.16
2022-08-12T17:55:44.791Z,98502.38
2022-08-12T17:58:18.149Z,98507.38
2022-08-12T18:00:50.413Z,98507.63
2022-08-12T18:03:58.179Z,98505.31
2022-08-12T18:06:13.702Z,98510.34
2022-08-12T18:08:53.510Z,98513.47
2022-08-12T18:12:03.944Z,98514.13
2022-08-12T18:14:32.237Z,98514.47
2022-08-12T18:17:05.720Z,98515.47
2022-08-12T18:20:05.693Z,98519.09
2022-08-12T18:22:30.622Z,98516.47
2022-08-12T18:26:16.132Z,98523.59
2022-08-12T18:28:15.130Z,98519.59
2022-08-12T18:30:53.423Z,98514.63
2022-08-12T18:33:25.641Z,98527.97
2022-08-12T18:35:57.081Z,98526.34
2022-08-12T18:38:28.009Z,98515.75
2022-08-12T18:41:20.815Z,98527.63
2022-08-12T18:43:59.508Z,98519.09
2022-08-12T18:46:37.493Z,98532.66
2022-08-12T18:49:18.730Z,98526.78
2022-08-12T18:51:55.585Z,98527.59
2022-08-12T18:54:35.051Z,98542.88
2022-08-12T18:57:16.512Z,98542.38
2022-08-12T19:00:01.851Z,98537.78
2022-08-12T19:02:39.860Z,98537.81
2022-08-12T19:05:12.104Z,98543.91
2022-08-12T19:07:57.917Z,98541.38
2022-08-12T19:10:30.068Z,98545.66
2022-08-12T19:13:24.123Z,98548.41
2022-08-12T19:15:54.702Z,98554.59
2022-08-12T19:18:29.340Z,98567.06
2022-08-12T19:21:06.386Z,98572.97
2022-08-12T19:23:42.504Z,98573.50
2022-08-12T19:26:12.617Z,98571.94
2022-08-12T19:28:41.641Z,98580.72
2022-08-12T19:31:58.372Z,98582.09
2022-08-12T19:37:20.027Z,98580.56
2022-08-12T19:40:07.703Z,98584.88
2022-08-12T19:42:44.605Z,98587.53
2022-08-12T19:45:15.877Z,98579.09
2022-08-12T19:47:44.742Z,98577.81
2022-08-12T19:50:19.691Z,98584.31
2022-08-12T19:52:51.169Z,98590.59
2022-08-12T19:55:22.575Z,98589.66
2022-08-12T19:58:01.816Z,98597.66
2022-08-12T20:00:34.681Z,98598.91
2022-08-12T20:03:04.735Z,98595.84
2022-08-12T20:06:05.027Z,98607.84
2022-08-12T20:08:33.179Z,98614.00
2022-08-12T20:12:13.579Z,98608.69
2022-08-12T20:14:01.484Z,98604.78
2022-08-12T20:16:52.427Z,98606.06
2022-08-12T20:19:53.295Z,98615.22
2022-08-12T20:22:24.918Z,98610.09
2022-08-12T20:25:01.415Z,98604.78
2022-08-12T20:28:03.045Z,98609.72
2022-08-12T20:30:37.778Z,98616.81
2022-08-12T20:33:17.585Z,98610.47
2022-08-12T20:36:12.889Z,98609.22
2022-08-12T20:38:40.276Z,98599.31
2022-08-12T20:41:16.505Z,98611.34
2022-08-12T20:43:48.293Z,98618.66
2022-08-12T20:46:17.155Z,98617.66
2022-08-12T20:48:54.934Z,98616.72
2022-08-12T20:51:27.642Z,98613.28
2022-08-12T20:53:59.236Z,98615.88
2022-08-12T20:56:34.230Z,98612.66
2022-08-12T20:59:05.388Z,98608.69
2022-08-12T21:01:46.877Z,98605.19
2022-08-12T21:04:34.638Z,98620.22
2022-08-12T21:07:08.254Z,98613.44
2022-08-12T21:09:41.440Z,98618.66
2022-08-12T21:12:31.132Z,98621.47
2022-08-12T21:15:17.325Z,98627.50
2022-08-12T21:18:11.717Z,98618.81
2022-08-12T21:20:52.538Z,98613.06
2022-08-12T21:23:22.641Z,98616.72
2022-08-12T21:26:01.157Z,98617.13
2022-08-12T21:28:32.000Z,98617.88
2022-08-12T21:32:38.077Z,98617.03
2022-08-12T21:34:08.799Z,98619.09
2022-08-12T21:36:40.276Z,98621.34
2022-08-12T21:39:18.711Z,98623.69
2022-08-12T21:41:51.378Z,98619.63
2022-08-12T21:44:24.442Z,98623.03
2022-08-12T21:47:21.092Z,98633.69
2022-08-12T21:49:55.558Z,98640.59
2022-08-12T21:52:28.376Z,98629.09
2022-08-12T21:55:08.582Z,98634.66
2022-08-12T21:57:51.286Z,98634.63
2022-08-12T22:00:33.095Z,98633.94
2022-08-12T22:04:01.244Z,98631.91
2022-08-12T22:06:31.303Z,98632.44
2022-08-12T22:09:16.394Z,98635.88
2022-08-12T22:11:56.627Z,98633.09
2022-08-12T22:14:28.884Z,98632.19
2022-08-12T22:17:01.380Z,98638.06
2022-08-12T22:19:35.011Z,98641.75
2022-08-12T22:22:05.143Z,98640.34
2022-08-12T22:24:33.413Z,98649.31
2022-08-12T22:27:22.935Z,98643.47
2022-08-12T22:30:07.916Z,98639.22
2022-08-12T22:32:44.755Z,98639.09
2022-08-12T22:35:56.051Z,98645.41
2022-08-12T22:38:25.076Z,98647.41
2022-08-12T22:40:55.201Z,98650.19
2022-08-12T22:43:59.079Z,98651.47
2022-08-12T22:47:00.726Z,98647.78
2022-08-12T22:49:36.795Z,98647.78
2022-08-12T22:52:18.494Z,98643.47
2022-08-12T22:55:03.035Z,98654.38
2022-08-12T22:57:53.949Z,98645.47
2022-08-12T23:00:23.898Z,98640.88
2022-08-12T23:02:58.422Z,98642.25
2022-08-12T23:05:57.465Z,98646.03
2022-08-12T23:08:22.264Z,98650.72
2022-08-12T23:10:52.068Z,98648.06
2022-08-12T23:13:43.407Z,98642.03
2022-08-12T23:16:28.267Z,98641.56
2022-08-12T23:18:59.998Z,98635.75
2022-08-12T23:22:04.393Z,98641.84
2022-08-12T23:24:19.707Z,98633.16
2022-08-12T23:27:06.101Z,98632.38
2022-08-12T23:29:43.141Z,98634.16
2022-08-12T23:32:53.948Z,98629.97
2022-08-12T23:35:03.779Z,98637.31
2022-08-12T23:37:46.454Z,98647.88
2022-08-12T23:40:18.217Z,98632.66
2022-08-12T23:42:49.129Z,98626.59
2022-08-12T23:45:20.548Z,98628.41
2022-08-12T23:47:59.151Z,98629.97
2022-08-12T23:50:33.896Z,98628.00
2022-08-12T23:53:06.393Z,98629.66
2022-08-12T23:55:45.670Z,98640.88
2022-08-12T23:58:21.589Z,98638.81
